createdAt,value
2023-01-11T00:02:16.542Z,3.80
2023-01-11T00:04:43.675Z,2.75
2023-01-11T00:07:10.741Z,3.55
2023-01-11T00:09:37.783Z,3.30
2023-01-11T00:12:04.905Z,3.33
2023-01-11T00:14:32.018Z,3.10
2023-01-11T00:17:00.079Z,3.08
2023-01-11T00:19:27.192Z,3.00
2023-01-11T00:21:54.303Z,3.58
2023-01-11T00:24:21.437Z,3.13
2023-01-11T00:26:48.513Z,3.15
2023-01-11T00:29:15.597Z,3.17
2023-01-11T00:31:42.718Z,3.33
2023-01-11T00:34:09.811Z,3.05
2023-01-11T00:36:36.885Z,3.15
2023-01-11T00:39:04.002Z,3.20
2023-01-11T00:41:49.922Z,3.45
2023-01-11T00:44:35.780Z,3.03
2023-01-11T00:47:21.874Z,3.50
2023-01-11T00:49:48.926Z,3.95
2023-01-11T00:52:15.979Z,3.17
2023-01-11T00:54:43.172Z,3.00
2023-01-11T00:57:10.524Z,3.08
2023-01-11T00:59:39.518Z,2.95
2023-01-11T01:02:06.976Z,2.85
2023-01-11T01:04:34.124Z,3.17
2023-01-11T01:07:01.216Z,3.30
2023-01-11T01:09:28.526Z,3.15
2023-01-11T01:11:55.678Z,3.20
2023-01-11T01:14:25.889Z,2.70
2023-01-11T01:16:53.452Z,3.40
2023-01-11T01:19:21.318Z,2.63
2023-01-11T01:21:48.557Z,3.05
2023-01-11T01:24:15.813Z,2.53
2023-01-11T01:26:43.093Z,3.00
2023-01-11T01:29:10.175Z,3.22
2023-01-11T01:31:37.236Z,3.13
2023-01-11T01:34:04.279Z,3.00
2023-01-11T01:36:31.308Z,3.35
2023-01-11T01:39:00.509Z,3.33
2023-01-11T01:41:27.603Z,2.97
2023-01-11T01:43:58.962Z,3.38
2023-01-11T01:46:33.412Z,3.50
2023-01-11T01:49:12.595Z,3.00
2023-01-11T01:51:42.280Z,2.78
2023-01-11T01:54:12.438Z,2.67
2023-01-11T01:56:48.101Z,2.80
2023-01-11T01:59:16.883Z,3.00
2023-01-11T02:01:48.824Z,3.10
2023-01-11T02:06:43.512Z,2.85
2023-01-11T02:09:20.108Z,2.67
2023-01-11T02:11:47.709Z,2.63
2023-01-11T02:14:17.308Z,3.13
2023-01-11T02:16:44.439Z,2.60
2023-01-11T02:19:17.183Z,2.30
2023-01-11T02:21:56.999Z,2.63
2023-01-11T02:24:35.140Z,3.17
2023-01-11T02:27:02.173Z,2.42
2023-01-11T02:29:49.921Z,2.20
2023-01-11T02:32:16.964Z,1.92
2023-01-11T02:34:59.514Z,2.20
2023-01-11T02:37:32.943Z,2.22
2023-01-11T02:40:20.130Z,2.10
2023-01-11T02:43:14.606Z,2.10
2023-01-11T02:45:50.464Z,2.15
2023-01-11T02:48:26.352Z,2.42
2023-01-11T02:50:53.371Z,1.77
2023-01-11T02:53:35.681Z,1.92
2023-01-11T02:56:05.551Z,2.00
2023-01-11T02:58:34.225Z,1.63
2023-01-11T03:01:01.721Z,1.98
2023-01-11T03:03:29.444Z,1.75
2023-01-11T03:06:11.594Z,1.55
2023-01-11T03:11:38.823Z,1.63
2023-01-11T03:14:15.899Z,1.42
2023-01-11T03:17:03.305Z,1.33
2023-01-11T03:19:33.248Z,1.48
2023-01-11T03:22:06.221Z,1.33
2023-01-11T03:24:50.393Z,1.45
2023-01-11T03:27:17.451Z,1.55
2023-01-11T03:30:11.310Z,1.17
2023-01-11T03:32:44.644Z,1.23
2023-01-11T03:35:29.711Z,1.27
2023-01-11T03:38:08.983Z,1.17
2023-01-11T03:40:39.128Z,1.10
2023-01-11T03:43:13.531Z,1.13
2023-01-11T03:45:51.726Z,1.10
2023-01-11T03:48:21.684Z,0.90
2023-01-11T03:50:50.563Z,1.08
2023-01-11T03:53:18.960Z,1.15
2023-01-11T03:55:48.405Z,0.60
2023-01-11T03:58:15.727Z,0.98
2023-01-11T04:00:43.237Z,0.70
2023-01-11T04:03:12.625Z,0.80
2023-01-11T04:05:40.799Z,0.88
2023-01-11T04:08:07.913Z,0.80
2023-01-11T04:10:34.966Z,0.60
2023-01-11T04:13:02.032Z,1.00
2023-01-11T04:15:31.580Z,0.60
2023-01-11T04:18:04.802Z,0.50
2023-01-11T04:20:41.321Z,0.75
2023-01-11T04:23:10.444Z,0.40
2023-01-11T04:25:37.592Z,0.55
2023-01-11T04:28:04.761Z,0.50
2023-01-11T04:30:31.890Z,0.80
2023-01-11T04:32:59.585Z,0.82
2023-01-11T04:35:27.031Z,0.90
2023-01-11T04:37:55.075Z,1.00
2023-01-11T04:40:22.243Z,1.30
2023-01-11T04:42:49.372Z,1.20
2023-01-11T04:45:16.580Z,1.73
2023-01-11T04:47:43.634Z,1.80
2023-01-11T04:50:11.852Z,2.00
2023-01-11T04:52:41.412Z,2.08
2023-01-11T04:55:09.057Z,2.42
2023-01-11T04:57:36.120Z,2.38
2023-01-11T05:00:05.012Z,3.15
2023-01-11T05:02:32.147Z,2.70
2023-01-11T05:04:59.337Z,2.70
2023-01-11T05:07:26.483Z,2.92
2023-01-11T05:09:53.591Z,3.47
2023-01-11T05:12:20.689Z,2.67
2023-01-11T05:14:48.149Z,3.17
2023-01-11T05:17:15.924Z,2.72
2023-01-11T05:19:43.090Z,2.90
2023-01-11T05:22:10.624Z,3.15
2023-01-11T05:24:37.700Z,2.72
2023-01-11T05:27:04.937Z,2.55
2023-01-11T05:29:32.097Z,2.60
2023-01-11T05:32:02.189Z,2.28
2023-01-11T05:34:32.774Z,2.55
2023-01-11T05:37:01.821Z,2.20
2023-01-11T05:39:28.899Z,2.67
2023-01-11T05:41:56.151Z,1.77
2023-01-11T05:44:42.030Z,2.30
2023-01-11T05:47:09.158Z,1.70
2023-01-11T05:49:36.264Z,2.03
2023-01-11T05:52:06.339Z,1.30
2023-01-11T05:54:33.480Z,1.80
2023-01-11T05:57:00.897Z,1.83
2023-01-11T05:59:30.476Z,2.10
2023-01-11T06:02:01.895Z,1.95
2023-01-11T06:04:29.033Z,1.30
2023-01-11T06:06:59.597Z,1.55
2023-01-11T06:09:27.023Z,2.03
2023-01-11T06:12:00.346Z,1.60
2023-01-11T06:14:27.771Z,1.70
2023-01-11T06:16:55.399Z,1.55
2023-01-11T06:19:28.627Z,1.60
2023-01-11T06:21:55.896Z,1.60
2023-01-11T06:24:26.139Z,1.95
2023-01-11T06:26:53.956Z,3.05
2023-01-11T06:29:21.159Z,2.30
2023-01-11T06:31:48.206Z,1.70
2023-01-11T06:34:15.292Z,2.35
2023-01-11T06:36:42.469Z,1.83
2023-01-11T06:39:10.803Z,1.40
2023-01-11T06:41:37.985Z,1.55
2023-01-11T06:44:06.050Z,2.40
2023-01-11T06:46:33.322Z,2.03
2023-01-11T06:49:02.604Z,1.83
2023-01-11T06:51:29.648Z,2.13
2023-01-11T06:53:56.788Z,1.85
2023-01-11T06:56:23.957Z,1.52
2023-01-11T06:58:52.576Z,1.80
2023-01-11T07:01:19.957Z,2.10
2023-01-11T07:03:47.342Z,2.42
2023-01-11T07:06:14.409Z,2.17
2023-01-11T07:08:42.619Z,2.08
2023-01-11T07:11:10.136Z,2.20
2023-01-11T07:13:37.234Z,3.03
2023-01-11T07:16:04.452Z,1.83
2023-01-11T07:18:31.762Z,2.00
2023-01-11T07:20:58.995Z,2.13
2023-01-11T07:23:26.406Z,1.48
2023-01-11T07:25:56.132Z,2.03
2023-01-11T07:28:23.489Z,2.90
2023-01-11T07:30:58.502Z,1.77
2023-01-11T07:33:33.970Z,2.05
2023-01-11T07:36:01.157Z,2.13
2023-01-11T07:38:31.116Z,1.38
2023-01-11T07:40:58.459Z,1.50
2023-01-11T07:43:26.001Z,1.48
2023-01-11T07:45:53.796Z,3.22
2023-01-11T07:48:25.463Z,1.98
2023-01-11T07:50:55.235Z,1.30
2023-01-11T07:53:25.450Z,1.33
2023-01-11T07:55:52.749Z,1.65
2023-01-11T07:58:20.023Z,1.60
2023-01-11T08:01:07.545Z,1.80
2023-01-11T08:03:35.248Z,1.30
2023-01-11T08:06:02.762Z,1.13
2023-01-11T08:08:32.601Z,1.58
2023-01-11T08:11:18.800Z,1.60
2023-01-11T08:14:04.954Z,2.42
2023-01-11T08:16:32.067Z,2.60
2023-01-11T08:18:59.420Z,2.05
2023-01-11T08:21:26.495Z,2.25
2023-01-11T08:23:54.255Z,1.73
2023-01-11T08:26:21.506Z,2.10
2023-01-11T08:28:48.655Z,1.77
2023-01-11T08:31:16.027Z,1.77
2023-01-11T08:33:43.286Z,1.85
2023-01-11T08:36:11.650Z,1.88
2023-01-11T08:38:38.763Z,2.03
2023-01-11T08:41:12.373Z,2.25
2023-01-11T08:43:39.547Z,1.75
2023-01-11T08:46:06.823Z,2.38
2023-01-11T08:48:33.976Z,1.23
2023-01-11T08:51:01.165Z,2.22
2023-01-11T08:53:31.119Z,1.45
2023-01-11T08:55:58.262Z,1.85
2023-01-11T08:58:25.518Z,1.42
2023-01-11T09:00:52.740Z,1.73
2023-01-11T09:03:20.729Z,2.00
2023-01-11T09:05:47.835Z,1.50
2023-01-11T09:08:14.946Z,1.83
2023-01-11T09:10:42.024Z,1.70
2023-01-11T09:13:09.121Z,1.90
2023-01-11T09:15:36.227Z,3.25
2023-01-11T09:18:03.388Z,1.77
2023-01-11T09:20:30.501Z,2.17
2023-01-11T09:22:57.719Z,1.25
2023-01-11T09:25:24.822Z,1.58
2023-01-11T09:27:52.566Z,1.25
2023-01-11T09:30:21.187Z,2.28
2023-01-11T09:32:48.429Z,1.42
2023-01-11T09:35:16.722Z,1.70
2023-01-11T09:37:49.107Z,1.77
2023-01-11T09:40:21.162Z,1.85
2023-01-11T09:45:19.423Z,1.38
2023-01-11T09:48:03.741Z,1.95
2023-01-11T09:50:40.045Z,2.03
2023-01-11T09:53:09.680Z,1.75
2023-01-11T09:55:38.851Z,2.10
2023-01-11T09:58:16.150Z,2.05
2023-01-11T10:01:03.280Z,1.80
2023-01-11T10:03:30.503Z,1.98
2023-01-11T10:06:03.804Z,1.95
2023-01-11T10:18:23.558Z,2.05
2023-01-11T10:18:37.432Z,1.75
2023-01-11T10:20:13.484Z,2.10
2023-01-11T10:22:44.046Z,1.58
2023-01-11T10:25:31.184Z,1.70
2023-01-11T10:28:01.585Z,1.48
2023-01-11T10:30:51.448Z,2.05
2023-01-11T10:33:37.792Z,1.75
2023-01-11T10:36:35.613Z,2.13
2023-01-11T10:39:21.679Z,1.73
2023-01-11T10:41:57.186Z,1.58
2023-01-11T10:44:32.690Z,1.50
2023-01-11T10:47:00.311Z,1.58
2023-01-11T10:49:39.912Z,1.65
2023-01-11T10:52:15.324Z,1.45
2023-01-11T10:54:49.069Z,1.85
2023-01-11T10:57:18.102Z,1.73
2023-01-11T10:59:52.439Z,2.22
2023-01-11T11:02:21.398Z,1.60
2023-01-11T11:05:15.817Z,1.80
2023-01-11T11:07:48.931Z,2.75
2023-01-11T11:10:27.983Z,2.88
2023-01-11T11:12:55.040Z,1.55
2023-01-11T11:15:25.230Z,1.67
2023-01-11T11:17:53.392Z,1.60
2023-01-11T11:20:22.807Z,1.85
2023-01-11T11:22:50.871Z,1.67
2023-01-11T11:25:21.001Z,1.75
2023-01-11T11:27:52.740Z,1.38
2023-01-11T11:30:27.542Z,2.08
2023-01-11T11:33:06.684Z,1.73
2023-01-11T11:35:36.709Z,1.67
2023-01-11T11:38:04.253Z,1.77
2023-01-11T11:40:36.266Z,1.40
2023-01-11T11:43:23.257Z,1.80
2023-01-11T11:45:53.566Z,1.58
2023-01-11T11:48:20.780Z,1.45
2023-01-11T11:50:48.818Z,1.60
2023-01-11T11:53:27.264Z,1.98
2023-01-11T11:55:54.713Z,1.45
2023-01-11T11:58:23.193Z,1.50
2023-01-11T12:00:51.490Z,2.00
2023-01-11T12:03:30.618Z,1.67
2023-01-11T12:06:02.270Z,2.35
2023-01-11T12:08:30.838Z,1.98
2023-01-11T12:11:19.279Z,1.73
2023-01-11T12:13:58.059Z,1.30
2023-01-11T12:16:30.695Z,1.58
2023-01-11T12:18:57.840Z,1.55
2023-01-11T12:21:26.304Z,1.83
2023-01-11T12:24:11.713Z,1.88
2023-01-11T12:26:46.913Z,2.38
2023-01-11T12:29:14.105Z,1.52
2023-01-11T12:31:52.752Z,3.45
2023-01-11T12:34:19.876Z,2.45
2023-01-11T12:36:53.778Z,1.95
2023-01-11T12:39:25.657Z,1.80
2023-01-11T12:41:58.652Z,2.30
2023-01-11T12:44:44.385Z,1.25
2023-01-11T12:47:40.878Z,1.33
2023-01-11T12:50:17.122Z,1.65
2023-01-11T12:52:50.520Z,1.17
2023-01-11T12:55:28.774Z,1.60
2023-01-11T12:58:02.078Z,1.52
2023-01-11T13:00:47.846Z,3.20
2023-01-11T13:03:14.959Z,1.52
2023-01-11T13:05:51.194Z,1.42
2023-01-11T13:08:21.054Z,1.15
2023-01-11T13:11:03.628Z,1.38
2023-01-11T13:13:46.612Z,1.40
2023-01-11T13:16:18.305Z,1.50
2023-01-11T13:18:59.184Z,1.98
2023-01-11T13:21:32.197Z,1.88
2023-01-11T13:24:02.681Z,1.67
2023-01-11T13:26:32.853Z,2.22
2023-01-11T13:29:01.473Z,1.42
2023-01-11T13:31:28.887Z,1.13
2023-01-11T13:33:59.184Z,1.23
2023-01-11T13:36:33.044Z,2.88
2023-01-11T13:39:12.602Z,1.65
2023-01-11T13:41:45.113Z,1.50
2023-01-11T13:44:20.993Z,1.63
2023-01-11T13:47:00.819Z,1.33
2023-01-11T13:49:46.769Z,2.08
2023-01-11T13:52:15.491Z,0.93
2023-01-11T13:54:49.507Z,1.25
2023-01-11T13:57:25.403Z,1.17
2023-01-11T13:59:55.863Z,2.00
2023-01-11T14:02:44.340Z,1.20
2023-01-11T14:05:15.285Z,2.17
2023-01-11T14:07:42.377Z,2.05
2023-01-11T14:10:16.275Z,1.73
2023-01-11T14:13:03.697Z,1.42
2023-01-11T14:15:32.351Z,1.30
2023-01-11T14:18:18.539Z,1.35
2023-01-11T14:20:54.878Z,1.67
2023-01-11T14:23:25.977Z,1.95
2023-01-11T14:26:08.078Z,1.57
2023-01-11T14:31:16.447Z,1.63
2023-01-11T14:33:58.987Z,1.52
2023-01-11T14:36:32.136Z,2.03
2023-01-11T14:39:17.799Z,1.42
2023-01-11T14:41:50.752Z,1.50
2023-01-11T14:44:17.956Z,1.25
2023-01-11T14:46:54.223Z,1.83
2023-01-11T14:49:27.096Z,1.02
2023-01-11T14:51:58.429Z,1.50
2023-01-11T14:54:31.764Z,1.23
2023-01-11T14:56:59.733Z,1.25
2023-01-11T14:59:29.606Z,1.58
2023-01-11T15:02:05.888Z,1.58
2023-01-11T15:04:59.739Z,1.77
2023-01-11T15:07:29.983Z,2.17
2023-01-11T15:09:57.984Z,1.17
2023-01-11T15:12:35.984Z,1.40
2023-01-11T15:15:04.578Z,2.05
2023-01-11T15:17:50.953Z,1.40
2023-01-11T15:20:19.282Z,1.20
2023-01-11T15:22:47.455Z,0.98
2023-01-11T15:25:22.932Z,1.30
2023-01-11T15:27:50.903Z,1.40
2023-01-11T15:30:30.106Z,1.55
2023-01-11T15:33:16.199Z,1.33
2023-01-11T15:36:03.476Z,1.45
2023-01-11T15:38:36.844Z,1.25
2023-01-11T15:41:23.581Z,1.65
2023-01-11T15:44:05.835Z,0.95
2023-01-11T15:46:53.576Z,1.55
2023-01-11T15:49:20.837Z,1.38
2023-01-11T15:51:54.036Z,1.65
2023-01-11T15:54:36.228Z,1.33
2023-01-11T15:59:49.215Z,2.60
2023-01-11T16:02:16.326Z,2.17
2023-01-11T16:04:43.361Z,1.45
2023-01-11T16:07:35.941Z,1.38
2023-01-11T16:10:03.704Z,1.20
2023-01-11T16:13:06.152Z,1.60
2023-01-11T16:18:13.332Z,1.25
2023-01-11T16:20:42.032Z,3.20
2023-01-11T16:23:15.281Z,1.30
2023-01-11T16:25:42.589Z,1.50
2023-01-11T16:28:16.093Z,1.67
2023-01-11T16:30:43.451Z,1.77
2023-01-11T16:33:14.817Z,1.17
2023-01-11T16:35:42.116Z,1.98
2023-01-11T16:38:15.240Z,1.45
2023-01-11T16:40:43.426Z,1.30
2023-01-11T16:43:19.161Z,1.45
2023-01-11T16:45:50.494Z,1.25
2023-01-11T16:48:19.019Z,2.05
2023-01-11T16:51:03.054Z,1.80
2023-01-11T16:53:31.125Z,2.05
2023-01-11T16:55:59.110Z,1.50
2023-01-11T16:58:28.698Z,1.27
2023-01-11T17:01:06.742Z,1.48
2023-01-11T17:03:35.264Z,1.60
2023-01-11T17:06:25.743Z,1.73
2023-01-11T17:08:54.311Z,1.45
2023-01-11T17:11:21.456Z,1.80
2023-01-11T17:13:54.649Z,2.58
2023-01-11T17:16:28.626Z,1.60
2023-01-11T17:18:55.952Z,2.05
2023-01-11T17:21:23.053Z,2.38
2023-01-11T17:23:50.755Z,2.03
2023-01-11T17:26:21.592Z,2.13
2023-01-11T17:28:50.174Z,2.13
2023-01-11T17:31:22.365Z,1.27
2023-01-11T17:33:50.549Z,1.77
2023-01-11T17:36:17.789Z,1.73
2023-01-11T17:38:45.301Z,2.10
2023-01-11T17:41:33.183Z,1.20
2023-01-11T17:44:19.173Z,2.22
2023-01-11T17:46:46.353Z,2.10
2023-01-11T17:49:20.231Z,1.52
2023-01-11T17:51:47.582Z,1.60
2023-01-11T17:54:21.579Z,1.77
2023-01-11T17:57:06.881Z,2.17
2023-01-11T17:59:34.553Z,1.80
2023-01-11T18:02:04.005Z,1.70
2023-01-11T18:04:32.109Z,2.15
2023-01-11T18:07:11.041Z,1.00
2023-01-11T18:09:41.045Z,1.10
2023-01-11T18:12:15.876Z,1.83
2023-01-11T18:14:49.032Z,0.90
2023-01-11T18:17:31.815Z,1.42
2023-01-11T18:19:59.692Z,0.95
2023-01-11T18:22:40.474Z,1.58
2023-01-11T18:25:34.985Z,1.13
2023-01-11T18:28:23.758Z,1.10
2023-01-11T18:30:53.713Z,1.52
2023-01-11T18:33:25.093Z,1.45
2023-01-11T18:35:53.406Z,1.52
2023-01-11T18:38:24.700Z,1.17
2023-01-11T18:40:53.439Z,0.98
2023-01-11T18:43:24.251Z,1.23
2023-01-11T18:45:51.374Z,1.08
2023-01-11T18:48:18.521Z,2.25
2023-01-11T18:50:46.086Z,1.67
2023-01-11T18:53:14.152Z,1.27
2023-01-11T18:55:42.118Z,1.73
2023-01-11T18:58:10.101Z,1.13
2023-01-11T19:00:37.971Z,1.45
2023-01-11T19:03:06.071Z,1.67
2023-01-11T19:05:33.266Z,1.55
2023-01-11T19:08:00.565Z,1.33
2023-01-11T19:10:27.834Z,1.48
2023-01-11T19:12:57.099Z,1.50
2023-01-11T19:15:24.441Z,1.98
2023-01-11T19:17:51.769Z,1.45
2023-01-11T19:20:19.468Z,1.08
2023-01-11T19:22:46.691Z,1.58
2023-01-11T19:25:15.334Z,0.95
2023-01-11T19:27:42.736Z,1.80
2023-01-11T19:30:10.369Z,1.67
2023-01-11T19:32:37.852Z,1.10
2023-01-11T19:35:06.510Z,1.75
2023-01-11T19:37:38.632Z,2.03
2023-01-11T19:40:06.282Z,1.23
2023-01-11T19:42:33.612Z,1.30
2023-01-11T19:45:01.329Z,1.08
2023-01-11T19:47:32.398Z,1.40
2023-01-11T19:50:01.118Z,1.07
2023-01-11T19:52:28.621Z,1.45
2023-01-11T19:54:59.223Z,1.63
2023-01-11T19:57:27.552Z,2.33
2023-01-11T19:59:54.984Z,1.25
2023-01-11T20:02:22.650Z,1.17
2023-01-11T20:04:50.400Z,1.08
2023-01-11T20:07:18.163Z,2.08
2023-01-11T20:09:45.515Z,1.30
2023-01-11T20:12:16.024Z,2.10
2023-01-11T20:14:47.096Z,1.90
2023-01-11T20:17:19.129Z,1.48
2023-01-11T20:19:46.940Z,1.63
2023-01-11T20:22:14.333Z,1.27
2023-01-11T20:24:45.479Z,1.77
2023-01-11T20:27:15.595Z,1.50
2023-01-11T20:29:46.897Z,1.70
2023-01-11T20:32:35.478Z,2.00
2023-01-11T20:35:08.591Z,1.40
2023-01-11T20:37:35.852Z,1.77
2023-01-11T20:40:02.966Z,1.23
2023-01-11T20:42:31.253Z,1.92
2023-01-11T20:44:58.348Z,1.35
2023-01-11T20:47:25.492Z,2.00
2023-01-11T20:49:52.617Z,1.63
2023-01-11T20:52:19.883Z,1.40
2023-01-11T20:54:46.946Z,1.30
2023-01-11T20:57:14.157Z,1.70
2023-01-11T20:59:41.322Z,1.08
2023-01-11T21:02:08.487Z,1.55
2023-01-11T21:04:35.768Z,1.70
2023-01-11T21:07:02.897Z,1.40
2023-01-11T21:09:30.042Z,1.80
2023-01-11T21:11:57.183Z,1.50
2023-01-11T21:14:24.362Z,1.20
2023-01-11T21:16:54.876Z,0.82
2023-01-11T21:19:22.039Z,1.30
2023-01-11T21:21:49.855Z,1.20
2023-01-11T21:24:26.662Z,0.98
2023-01-11T21:26:54.000Z,1.48
2023-01-11T21:29:21.373Z,1.10
2023-01-11T21:31:48.735Z,1.20
2023-01-11T21:34:16.582Z,0.93
2023-01-11T21:36:44.209Z,1.73
2023-01-11T21:39:13.747Z,1.42
2023-01-11T21:41:56.125Z,1.20
2023-01-11T21:44:26.399Z,1.10
2023-01-11T21:46:54.508Z,1.08
2023-01-11T21:49:22.573Z,1.30
2023-01-11T21:51:50.075Z,0.90
2023-01-11T21:54:18.957Z,1.65
2023-01-11T21:56:49.005Z,0.98
2023-01-11T21:59:16.378Z,1.17
2023-01-11T22:01:44.311Z,1.20
2023-01-11T22:04:12.737Z,1.67
2023-01-11T22:06:40.515Z,1.10
2023-01-11T22:09:09.065Z,1.25
2023-01-11T22:11:36.181Z,1.00
2023-01-11T22:14:04.844Z,1.10
2023-01-11T22:16:32.332Z,1.20
2023-01-11T22:19:00.241Z,1.30
2023-01-11T22:21:27.643Z,2.42
2023-01-11T22:23:55.993Z,1.35
2023-01-11T22:26:23.613Z,1.67
2023-01-11T22:29:11.545Z,1.35
2023-01-11T22:31:39.533Z,1.10
2023-01-11T22:34:07.127Z,1.40
2023-01-11T22:36:34.295Z,1.40
2023-01-11T22:39:01.451Z,1.40
2023-01-11T22:41:28.627Z,1.30
2023-01-11T22:43:55.761Z,1.27
2023-01-11T22:46:23.927Z,1.58
2023-01-11T22:48:51.277Z,1.05
2023-01-11T22:51:19.960Z,2.13
2023-01-11T22:53:48.133Z,1.30
2023-01-11T22:56:18.633Z,1.23
2023-01-11T22:58:46.304Z,1.58
2023-01-11T23:01:14.223Z,1.20
2023-01-11T23:03:41.956Z,1.40
2023-01-11T23:06:09.886Z,1.85
2023-01-11T23:08:40.603Z,1.73
2023-01-11T23:11:08.370Z,1.88
2023-01-11T23:13:55.003Z,1.90
2023-01-11T23:16:22.510Z,1.58
2023-01-11T23:18:49.701Z,1.50
2023-01-11T23:21:17.094Z,2.13
2023-01-11T23:23:44.257Z,2.28
2023-01-11T23:26:17.956Z,1.70
2023-01-11T23:28:46.137Z,1.20
2023-01-11T23:31:17.841Z,1.92
2023-01-11T23:33:48.911Z,1.77
2023-01-11T23:36:16.793Z,2.00
2023-01-11T23:38:43.938Z,0.90
2023-01-11T23:41:31.128Z,1.75
2023-01-11T23:43:58.299Z,1.45
2023-01-11T23:46:44.709Z,1.48
2023-01-11T23:49:14.401Z,2.22
2023-01-11T23:51:41.641Z,1.92
2023-01-11T23:54:09.114Z,2.40
2023-01-11T23:56:36.378Z,1.60
2023-01-11T23:59:04.660Z,1.75
